ホワイトホース の空港の天気 - METARとTAF

ホワイトホース国際空港 ( CYXY / YXY ) - カナダ ユーコン準州ホワイトホース
飛行場実況気象(Metar)
観測時間10/16 00:00 PDT (10/16 07:00 UTC)
風向・風速不定 1m/s
視程10km以上
天気現象弱い雪
少しの雲 雲底高度 240m
全天の8割程度の雲 雲底高度 520m
気温-1℃
湿度93%
気圧996.8hPa
METARCYXY 160700Z CCA VRB02KT 15SM -SN FEW008 BKN017 M01/M02 A2932 RMK ST1ST7 SLP968
過去の天気等 Google飛行場航空写真 Wunderground天気予報

過去48時間のMETAR

飛行場予報(TAF)
発表時間: 10/15 22:41 PDT (10/16 05:41 UTC)
予報対象時間: 15日23時 PDT ~ 16日11時 PDT
風向・風速不定 2m/s
視程10km以上
全天の4割程度の雲 雲底高度 240m
全天を覆う雲 雲底高度 610m
15日23時 PDT ~ 16日11時 PDT に一時的に
視程3220m
天気現象弱い雪 もや
少しの雲 雲底高度 120m
全天を覆う雲 雲底高度 240m
TAF CYXY 160541Z 1606/1618 VRB03KT P6SM SCT008 OVC020
TEMPO 1606/1618 2SM -SN BR FEW004 OVC008 RMK NXT FCST BY 161200Z